createdAt,value
2023-05-04T00:00:20.997Z,5.30
2023-05-04T00:02:47.937Z,5.80
2023-05-04T00:05:14.922Z,5.28
2023-05-04T00:07:42.203Z,5.75
2023-05-04T00:10:09.570Z,5.75
2023-05-04T00:12:36.704Z,5.43
2023-05-04T00:15:04.363Z,5.18
2023-05-04T00:17:32.075Z,5.32
2023-05-04T00:19:58.906Z,5.38
2023-05-04T00:22:26.131Z,6.22
2023-05-04T00:24:52.848Z,5.28
2023-05-04T00:27:19.802Z,5.88
2023-05-04T00:29:46.582Z,5.65
2023-05-04T00:32:13.514Z,5.72
2023-05-04T00:34:41.611Z,5.15
2023-05-04T00:37:08.643Z,5.32
2023-05-04T00:39:35.561Z,5.22
2023-05-04T00:42:03.254Z,5.88
2023-05-04T00:44:30.428Z,5.63
2023-05-04T00:46:57.931Z,6.38
2023-05-04T00:49:25.825Z,5.55
2023-05-04T00:51:55.370Z,6.10
2023-05-04T00:54:22.680Z,5.68
2023-05-04T00:56:51.590Z,5.65
2023-05-04T00:59:18.566Z,5.80
2023-05-04T01:01:45.404Z,5.75
2023-05-04T01:04:12.653Z,5.80
2023-05-04T01:06:39.428Z,5.70
2023-05-04T01:09:37.548Z,5.93
2023-05-04T01:12:08.508Z,5.85
2023-05-04T01:14:36.683Z,4.95
2023-05-04T01:17:05.872Z,4.55
2023-05-04T01:19:33.807Z,4.75
2023-05-04T01:22:02.853Z,6.00
2023-05-04T01:24:30.974Z,5.28
2023-05-04T01:27:05.754Z,5.10
2023-05-04T01:29:54.859Z,5.45
2023-05-04T01:32:23.858Z,4.88
2023-05-04T01:34:51.824Z,5.50
2023-05-04T01:37:18.717Z,5.50
2023-05-04T01:39:46.358Z,4.95
2023-05-04T01:42:13.286Z,5.05
2023-05-04T01:44:40.774Z,5.15
2023-05-04T01:47:07.850Z,4.82
2023-05-04T01:49:34.777Z,4.78
2023-05-04T01:52:01.833Z,5.50
2023-05-04T01:54:28.617Z,5.70
2023-05-04T01:56:55.497Z,5.00
2023-05-04T01:59:22.299Z,5.35
2023-05-04T02:01:49.502Z,5.40
2023-05-04T02:04:16.828Z,5.22
2023-05-04T02:06:43.789Z,5.30
2023-05-04T02:09:10.917Z,4.63
2023-05-04T02:11:37.850Z,6.30
2023-05-04T02:14:06.212Z,5.32
2023-05-04T02:16:33.168Z,4.93
2023-05-04T02:19:00.637Z,4.72
2023-05-04T02:21:27.949Z,6.18
2023-05-04T02:23:55.010Z,4.88
2023-05-04T02:26:24.392Z,4.15
2023-05-04T02:28:51.612Z,4.88
2023-05-04T02:31:18.557Z,4.53
2023-05-04T02:33:45.872Z,5.32
2023-05-04T02:36:12.754Z,4.18
2023-05-04T02:38:39.594Z,4.80
2023-05-04T02:41:06.879Z,4.93
2023-05-04T02:43:33.598Z,4.82
2023-05-04T02:48:27.305Z,4.13
2023-05-04T02:50:54.251Z,5.60
2023-05-04T02:53:21.201Z,4.50
2023-05-04T02:55:48.342Z,4.68
2023-05-04T02:58:15.296Z,5.10
2023-05-04T03:00:42.517Z,4.55
2023-05-04T03:03:09.245Z,4.68
2023-05-04T03:05:36.415Z,5.13
2023-05-04T03:08:03.220Z,5.18
2023-05-04T03:10:30.253Z,5.53
2023-05-04T03:12:56.985Z,4.45
2023-05-04T03:15:23.982Z,5.20
2023-05-04T03:17:51.103Z,5.63
2023-05-04T03:20:18.316Z,5.80
2023-05-04T03:22:46.333Z,5.07
2023-05-04T03:25:13.171Z,5.63
2023-05-04T03:27:40.153Z,5.97
2023-05-04T03:30:08.907Z,5.63
2023-05-04T03:32:37.137Z,5.30
2023-05-04T03:35:04.900Z,5.07
2023-05-04T03:37:32.130Z,4.75
2023-05-04T03:40:00.198Z,5.82
2023-05-04T03:42:27.751Z,5.32
2023-05-04T03:44:55.237Z,5.53
2023-05-04T03:47:22.369Z,5.18
2023-05-04T03:49:50.747Z,5.60
2023-05-04T03:52:17.629Z,4.88
2023-05-04T03:54:44.463Z,6.25
2023-05-04T03:57:11.845Z,6.53
2023-05-04T03:59:39.136Z,5.78
2023-05-04T04:02:06.770Z,5.63
2023-05-04T04:04:34.188Z,5.30
2023-05-04T04:07:02.363Z,5.95
2023-05-04T04:09:30.914Z,5.28
2023-05-04T04:11:57.743Z,6.82
2023-05-04T04:14:24.891Z,6.50
2023-05-04T04:16:51.740Z,6.35
2023-05-04T04:19:18.648Z,5.63
2023-05-04T04:21:45.727Z,5.40
2023-05-04T04:24:12.616Z,6.55
2023-05-04T04:26:39.597Z,6.15
2023-05-04T04:29:06.548Z,5.70
2023-05-04T04:31:34.011Z,6.45
2023-05-04T04:34:01.116Z,7.15
2023-05-04T04:36:27.921Z,6.55
2023-05-04T04:38:54.601Z,5.90
2023-05-04T04:41:21.434Z,6.50
2023-05-04T04:44:03.208Z,7.32
2023-05-04T04:46:30.156Z,6.95
2023-05-04T04:49:03.398Z,6.80
2023-05-04T04:51:30.406Z,7.18
2023-05-04T04:53:57.347Z,7.57
2023-05-04T04:56:24.207Z,6.43
2023-05-04T04:58:51.335Z,6.95
2023-05-04T05:01:18.909Z,6.78
2023-05-04T05:03:45.959Z,6.57
2023-05-04T05:06:19.965Z,6.85
2023-05-04T05:08:47.156Z,6.53
2023-05-04T05:11:14.006Z,6.88
2023-05-04T05:13:41.018Z,7.28
2023-05-04T05:16:07.908Z,6.95
2023-05-04T05:18:34.686Z,7.13
2023-05-04T05:21:01.719Z,7.63
2023-05-04T05:23:28.672Z,7.10
2023-05-04T05:25:56.747Z,7.38
2023-05-04T05:28:24.817Z,7.35
2023-05-04T05:30:52.520Z,7.35
2023-05-04T05:33:19.469Z,7.50
2023-05-04T05:35:46.777Z,7.65
2023-05-04T05:38:13.663Z,6.63
2023-05-04T05:40:41.783Z,7.38
2023-05-04T05:43:09.298Z,7.20
2023-05-04T05:45:36.170Z,7.28
2023-05-04T05:48:03.124Z,7.13
2023-05-04T05:50:29.915Z,6.50
2023-05-04T05:52:58.854Z,7.13
2023-05-04T05:55:26.087Z,5.97
2023-05-04T05:57:52.960Z,6.03
2023-05-04T06:00:20.147Z,6.80
2023-05-04T06:02:47.130Z,6.50
2023-05-04T06:05:15.290Z,6.95
2023-05-04T06:07:42.251Z,6.75
2023-05-04T06:10:09.721Z,7.85
2023-05-04T06:12:36.592Z,6.45
2023-05-04T06:15:03.829Z,6.82
2023-05-04T06:17:30.685Z,5.80
2023-05-04T06:19:57.519Z,6.85
2023-05-04T06:22:24.343Z,6.57
2023-05-04T06:24:51.520Z,6.45
2023-05-04T06:27:18.331Z,5.85
2023-05-04T06:29:45.420Z,5.85
2023-05-04T06:32:12.461Z,5.78
2023-05-04T06:34:39.600Z,7.03
2023-05-04T06:37:06.505Z,5.70
2023-05-04T06:39:33.632Z,6.00
2023-05-04T06:42:00.719Z,5.97
2023-05-04T06:44:37.921Z,5.38
2023-05-04T06:47:04.899Z,5.60
2023-05-04T06:49:32.865Z,4.80
2023-05-04T06:51:59.962Z,5.30
2023-05-04T06:54:27.696Z,5.97
2023-05-04T06:56:55.068Z,4.88
2023-05-04T06:59:27.467Z,5.82
2023-05-04T07:01:54.394Z,6.03
2023-05-04T07:04:24.001Z,5.60
2023-05-04T07:06:51.407Z,5.35
2023-05-04T07:09:21.895Z,6.28
2023-05-04T07:11:48.829Z,5.53
2023-05-04T07:14:16.548Z,5.05
2023-05-04T07:16:43.648Z,5.78
2023-05-04T07:19:10.585Z,4.53
2023-05-04T07:21:37.841Z,6.03
2023-05-04T07:24:08.314Z,6.32
2023-05-04T07:26:35.222Z,6.50
2023-05-04T07:29:01.930Z,5.72
2023-05-04T07:31:30.425Z,5.95
2023-05-04T07:33:58.683Z,5.78
2023-05-04T07:36:26.747Z,5.70
2023-05-04T07:38:54.383Z,5.70
2023-05-04T07:41:21.490Z,6.15
2023-05-04T07:43:48.473Z,5.63
2023-05-04T07:46:17.843Z,5.88
2023-05-04T07:48:44.792Z,6.20
2023-05-04T07:51:15.342Z,5.65
2023-05-04T07:53:43.784Z,6.45
2023-05-04T07:56:14.088Z,6.10
2023-05-04T07:58:41.696Z,6.00
2023-05-04T08:01:08.633Z,5.65
2023-05-04T08:03:36.385Z,6.85
2023-05-04T08:06:03.335Z,5.25
2023-05-04T08:08:30.330Z,5.70
2023-05-04T08:11:07.911Z,6.00
2023-05-04T08:13:40.225Z,5.97
2023-05-04T08:16:08.788Z,6.30
2023-05-04T08:18:35.445Z,5.72
2023-05-04T08:21:02.307Z,5.85
2023-05-04T08:23:29.344Z,5.22
2023-05-04T08:25:56.210Z,5.90
2023-05-04T08:28:23.029Z,6.10
2023-05-04T08:30:49.811Z,5.28
2023-05-04T08:33:16.790Z,6.72
2023-05-04T08:35:45.043Z,6.40
2023-05-04T08:38:12.029Z,4.90
2023-05-04T08:40:44.254Z,5.13
2023-05-04T08:43:11.635Z,6.10
2023-05-04T08:45:41.665Z,6.13
2023-05-04T08:48:09.466Z,5.30
2023-05-04T08:50:38.556Z,5.50
2023-05-04T08:53:12.675Z,5.13
2023-05-04T08:55:42.601Z,5.60
2023-05-04T08:58:13.965Z,5.70
2023-05-04T09:00:43.692Z,5.57
2023-05-04T09:03:11.497Z,5.97
2023-05-04T09:05:38.952Z,5.63
2023-05-04T09:08:06.977Z,6.20
2023-05-04T09:10:34.365Z,5.82
2023-05-04T09:13:01.491Z,5.97
2023-05-04T09:15:32.006Z,6.22
2023-05-04T09:18:03.219Z,7.32
2023-05-04T09:20:31.300Z,5.90
2023-05-04T09:23:02.283Z,7.10
2023-05-04T09:25:29.207Z,5.85
2023-05-04T09:27:56.443Z,5.80
2023-05-04T09:30:23.565Z,5.78
2023-05-04T09:32:50.546Z,6.65
2023-05-04T09:35:33.072Z,6.85
2023-05-04T09:40:32.835Z,6.60
2023-05-04T09:43:01.196Z,6.18
2023-05-04T09:45:42.843Z,5.78
2023-05-04T09:48:17.527Z,5.85
2023-05-04T09:50:58.475Z,6.90
2023-05-04T09:53:27.796Z,6.50
2023-05-04T09:56:08.386Z,6.00
2023-05-04T09:58:36.521Z,5.95
2023-05-04T10:01:04.650Z,6.40
2023-05-04T10:03:37.987Z,7.00
2023-05-04T10:06:06.135Z,6.38
2023-05-04T10:08:33.759Z,5.80
2023-05-04T10:11:00.611Z,6.80
2023-05-04T10:13:28.870Z,5.90
2023-05-04T10:16:25.002Z,7.10
2023-05-04T10:19:20.861Z,6.10
2023-05-04T10:21:53.898Z,6.95
2023-05-04T10:24:21.187Z,6.53
2023-05-04T10:27:06.573Z,6.50
2023-05-04T10:29:34.484Z,6.90
2023-05-04T10:32:01.987Z,6.93
2023-05-04T10:34:30.034Z,6.78
2023-05-04T10:36:58.098Z,7.25
2023-05-04T10:39:32.758Z,7.55
2023-05-04T10:42:06.951Z,6.00
2023-05-04T10:44:36.213Z,6.93
2023-05-04T10:47:06.921Z,7.03
2023-05-04T10:49:35.287Z,7.03
2023-05-04T10:52:09.102Z,6.88
2023-05-04T10:54:37.525Z,7.15
2023-05-04T10:57:10.363Z,7.25
2023-05-04T10:59:38.070Z,6.32
2023-05-04T11:02:06.971Z,6.20
2023-05-04T11:04:34.912Z,7.90
2023-05-04T11:07:05.326Z,7.10
2023-05-04T11:09:40.072Z,6.75
2023-05-04T11:12:10.988Z,7.68
2023-05-04T11:14:42.663Z,7.90
2023-05-04T11:17:26.666Z,8.05
2023-05-04T11:19:54.345Z,6.22
2023-05-04T11:22:21.488Z,6.15
2023-05-04T11:24:51.462Z,7.93
2023-05-04T11:27:30.113Z,7.20
2023-05-04T11:30:02.412Z,7.45
2023-05-04T11:32:36.056Z,7.07
2023-05-04T11:35:05.069Z,7.22
2023-05-04T11:37:40.288Z,7.45
2023-05-04T11:40:16.718Z,8.10
2023-05-04T11:42:44.421Z,7.70
2023-05-04T11:45:18.508Z,7.85
2023-05-04T11:47:47.270Z,6.60
2023-05-04T11:50:16.901Z,7.00
2023-05-04T11:52:44.578Z,8.55
2023-05-04T11:55:13.129Z,7.82
2023-05-04T11:57:40.451Z,7.22
2023-05-04T12:00:09.076Z,7.47
2023-05-04T12:02:36.401Z,6.45
2023-05-04T12:05:04.138Z,7.57
2023-05-04T12:07:37.743Z,7.22
2023-05-04T12:10:04.696Z,8.23
2023-05-04T12:12:36.006Z,7.70
2023-05-04T12:15:03.040Z,7.70
2023-05-04T12:17:40.184Z,7.65
2023-05-04T12:20:07.663Z,8.05
2023-05-04T12:22:35.912Z,7.53
2023-05-04T12:25:03.128Z,7.03
2023-05-04T12:27:30.166Z,8.23
2023-05-04T12:29:57.024Z,8.00
2023-05-04T12:32:23.855Z,7.53
2023-05-04T12:34:50.630Z,8.30
2023-05-04T12:37:17.365Z,7.93
2023-05-04T12:39:44.151Z,6.88
2023-05-04T12:42:11.271Z,7.78
2023-05-04T12:44:37.936Z,8.52
2023-05-04T12:47:05.188Z,8.80
2023-05-04T12:49:32.550Z,7.35
2023-05-04T12:51:59.351Z,7.53
2023-05-04T12:54:26.330Z,8.63
2023-05-04T12:56:53.670Z,7.55
2023-05-04T12:59:20.554Z,8.15
2023-05-04T13:01:47.591Z,7.85
2023-05-04T13:04:14.503Z,8.00
2023-05-04T13:06:42.811Z,8.50
2023-05-04T13:09:10.321Z,7.10
2023-05-04T13:11:37.572Z,9.20
2023-05-04T13:14:04.454Z,8.75
2023-05-04T13:16:31.526Z,7.97
2023-05-04T13:18:58.998Z,8.05
2023-05-04T13:21:25.858Z,7.78
2023-05-04T13:23:54.028Z,6.97
2023-05-04T13:26:21.518Z,8.38
2023-05-04T13:28:48.961Z,8.05
2023-05-04T13:31:16.048Z,9.40
2023-05-04T13:33:44.825Z,7.60
2023-05-04T13:36:11.662Z,8.25
2023-05-04T13:38:38.686Z,7.53
2023-05-04T13:41:05.882Z,7.80
2023-05-04T13:43:32.885Z,6.60
2023-05-04T13:46:03.652Z,7.80
2023-05-04T13:48:33.136Z,7.35
2023-05-04T13:51:00.155Z,7.30
2023-05-04T13:53:27.051Z,6.78
2023-05-04T13:55:54.042Z,7.15
2023-05-04T13:58:21.127Z,6.78
2023-05-04T14:00:48.349Z,7.65
2023-05-04T14:03:15.139Z,7.65
2023-05-04T14:05:41.921Z,7.75
2023-05-04T14:08:08.754Z,7.65
2023-05-04T14:10:37.449Z,7.13
2023-05-04T14:13:04.488Z,6.40
2023-05-04T14:15:32.744Z,7.25
2023-05-04T14:17:59.606Z,7.47
2023-05-04T14:20:27.178Z,7.93
2023-05-04T14:22:54.043Z,7.22
2023-05-04T14:25:22.327Z,6.75
2023-05-04T14:27:49.415Z,7.25
2023-05-04T14:30:17.035Z,5.75
2023-05-04T14:32:44.050Z,6.85
2023-05-04T14:35:12.636Z,6.30
2023-05-04T14:37:40.653Z,6.10
2023-05-04T14:40:10.402Z,5.57
2023-05-04T14:42:38.613Z,6.45
2023-05-04T14:45:07.062Z,6.30
2023-05-04T14:47:35.184Z,6.20
2023-05-04T14:50:02.847Z,6.28
2023-05-04T14:52:29.900Z,5.80
2023-05-04T14:54:56.970Z,5.70
2023-05-04T14:57:23.902Z,6.13
2023-05-04T14:59:51.259Z,5.78
2023-05-04T15:02:18.978Z,6.90
2023-05-04T15:04:47.145Z,6.80
2023-05-04T15:07:18.874Z,7.03
2023-05-04T15:09:45.807Z,7.13
2023-05-04T15:12:12.973Z,5.57
2023-05-04T15:14:39.857Z,7.00
2023-05-04T15:17:07.610Z,7.05
2023-05-04T15:19:38.379Z,6.38
2023-05-04T15:22:06.711Z,5.88
2023-05-04T15:24:33.761Z,6.15
2023-05-04T15:27:02.335Z,5.25
2023-05-04T15:29:29.565Z,6.80
2023-05-04T15:31:56.955Z,5.97
2023-05-04T15:34:24.477Z,6.68
2023-05-04T15:36:52.409Z,6.10
2023-05-04T15:39:19.294Z,6.70
2023-05-04T15:41:46.162Z,5.88
2023-05-04T15:44:13.068Z,6.50
2023-05-04T15:46:40.184Z,6.15
2023-05-04T15:49:07.372Z,6.30
2023-05-04T15:51:34.700Z,6.75
2023-05-04T15:54:03.106Z,6.50
2023-05-04T15:56:30.165Z,5.63
2023-05-04T15:58:57.363Z,6.18
2023-05-04T16:01:24.528Z,6.07
2023-05-04T16:03:53.998Z,6.03
2023-05-04T16:06:21.687Z,5.90
2023-05-04T16:08:49.581Z,5.93
2023-05-04T16:11:16.528Z,5.10
2023-05-04T16:13:43.891Z,5.93
2023-05-04T16:16:11.124Z,5.78
2023-05-04T16:18:38.656Z,5.60
2023-05-04T16:21:05.682Z,5.55
2023-05-04T16:23:32.586Z,5.97
2023-05-04T16:25:59.529Z,5.50
2023-05-04T16:28:26.511Z,6.15
2023-05-04T16:30:53.598Z,4.82
2023-05-04T16:33:20.961Z,5.60
2023-05-04T16:35:47.902Z,6.53
2023-05-04T16:38:15.466Z,6.20
2023-05-04T16:40:42.862Z,6.47
2023-05-04T16:43:10.973Z,6.35
2023-05-04T16:45:38.515Z,6.45
2023-05-04T16:48:06.476Z,6.50
2023-05-04T16:50:33.694Z,6.60
2023-05-04T16:53:00.708Z,6.88
2023-05-04T16:55:27.677Z,5.82
2023-05-04T16:57:58.102Z,7.20
2023-05-04T17:00:25.743Z,7.18
2023-05-04T17:02:53.419Z,6.55
2023-05-04T17:05:21.209Z,6.88
2023-05-04T17:07:49.580Z,6.85
2023-05-04T17:10:18.410Z,7.20
2023-05-04T17:12:45.601Z,6.93
2023-05-04T17:15:12.826Z,6.70
2023-05-04T17:17:40.659Z,6.72
2023-05-04T17:20:09.795Z,7.22
2023-05-04T17:22:37.411Z,6.57
2023-05-04T17:25:05.165Z,7.85
2023-05-04T17:27:33.467Z,7.85
2023-05-04T17:30:00.697Z,7.15
2023-05-04T17:32:27.847Z,6.80
2023-05-04T17:34:56.743Z,6.97
2023-05-04T17:37:24.207Z,7.88
2023-05-04T17:39:51.429Z,7.00
2023-05-04T17:42:18.288Z,7.53
2023-05-04T17:44:45.949Z,6.95
2023-05-04T17:47:13.077Z,7.65
2023-05-04T17:49:39.953Z,7.57
2023-05-04T17:52:08.039Z,7.00
2023-05-04T17:54:34.981Z,6.90
2023-05-04T17:57:03.210Z,6.43
2023-05-04T17:59:30.340Z,6.43
2023-05-04T18:01:57.471Z,6.40
2023-05-04T18:04:32.939Z,6.97
2023-05-04T18:07:00.004Z,6.20
2023-05-04T18:09:39.587Z,6.65
2023-05-04T18:12:06.511Z,6.22
2023-05-04T18:14:34.570Z,6.90
2023-05-04T18:17:01.554Z,6.50
2023-05-04T18:19:28.776Z,5.85
2023-05-04T18:21:56.897Z,6.82
2023-05-04T18:24:24.096Z,6.82
2023-05-04T18:26:54.695Z,6.55
2023-05-04T18:29:21.735Z,6.65
2023-05-04T18:31:49.493Z,6.22
2023-05-04T18:34:17.149Z,6.95
2023-05-04T18:36:46.859Z,6.93
2023-05-04T18:39:16.164Z,7.50
2023-05-04T18:41:43.152Z,6.82
2023-05-04T18:44:16.699Z,6.78
2023-05-04T18:46:49.235Z,6.38
2023-05-04T18:49:16.342Z,6.60
2023-05-04T18:51:45.421Z,6.72
2023-05-04T18:54:14.957Z,6.53
2023-05-04T18:56:44.071Z,6.85
2023-05-04T18:59:11.004Z,6.75
2023-05-04T19:01:38.774Z,6.70
2023-05-04T19:04:06.452Z,6.63
2023-05-04T19:06:34.047Z,6.85
2023-05-04T19:09:01.471Z,6.93
2023-05-04T19:11:29.382Z,6.40
2023-05-04T19:13:56.262Z,6.63
2023-05-04T19:16:23.304Z,7.43
2023-05-04T19:18:50.537Z,7.85
2023-05-04T19:21:18.960Z,7.13
2023-05-04T19:23:46.605Z,6.80
2023-05-04T19:26:13.679Z,6.97
2023-05-04T19:28:40.830Z,6.70
2023-05-04T19:31:07.830Z,6.93
2023-05-04T19:33:45.014Z,6.95
2023-05-04T19:36:16.480Z,7.35
2023-05-04T19:38:43.495Z,7.25
2023-05-04T19:41:11.604Z,6.78
2023-05-04T19:43:39.389Z,7.22
2023-05-04T19:46:08.335Z,6.72
2023-05-04T19:48:35.193Z,6.80
2023-05-04T19:51:03.473Z,7.32
2023-05-04T19:53:32.733Z,7.50
2023-05-04T19:56:00.071Z,7.15
2023-05-04T19:58:28.709Z,7.78
2023-05-04T20:00:56.288Z,6.47
2023-05-04T20:03:23.561Z,6.45
2023-05-04T20:05:52.148Z,6.43
2023-05-04T20:08:19.310Z,6.90
2023-05-04T20:10:46.403Z,7.65
2023-05-04T20:13:13.998Z,6.65
2023-05-04T20:15:41.223Z,6.85
2023-05-04T20:18:08.844Z,7.80
2023-05-04T20:20:36.450Z,6.55
2023-05-04T20:23:03.710Z,6.60
2023-05-04T20:25:30.870Z,6.97
2023-05-04T20:27:58.224Z,7.25
2023-05-04T20:30:28.265Z,7.20
2023-05-04T20:32:55.686Z,7.95
2023-05-04T20:35:24.635Z,7.30
2023-05-04T20:37:51.706Z,8.15
2023-05-04T20:40:18.631Z,6.80
2023-05-04T20:42:45.934Z,7.63
2023-05-04T20:45:12.918Z,7.22
2023-05-04T20:47:40.182Z,7.20
2023-05-04T20:50:08.802Z,7.43
2023-05-04T20:52:36.092Z,6.70
2023-05-04T20:55:02.991Z,6.75
2023-05-04T20:57:30.189Z,7.82
2023-05-04T20:59:57.722Z,7.70
2023-05-04T21:02:24.634Z,7.60
2023-05-04T21:04:51.571Z,7.15
2023-05-04T21:07:19.267Z,7.28
2023-05-04T21:09:46.925Z,7.15
2023-05-04T21:12:13.987Z,7.07
2023-05-04T21:14:41.238Z,7.70
2023-05-04T21:17:08.722Z,7.57
2023-05-04T21:19:35.629Z,7.00
2023-05-04T21:22:02.465Z,6.55
2023-05-04T21:24:30.039Z,7.35
2023-05-04T21:26:58.084Z,7.10
2023-05-04T21:29:25.874Z,7.45
2023-05-04T21:31:53.003Z,6.82
2023-05-04T21:34:20.250Z,7.43
2023-05-04T21:36:47.355Z,7.40
2023-05-04T21:39:14.520Z,7.40
2023-05-04T21:41:41.779Z,5.80
2023-05-04T21:44:09.271Z,7.13
2023-05-04T21:46:36.517Z,7.05
2023-05-04T21:49:03.398Z,6.63
2023-05-04T21:51:31.958Z,6.85
2023-05-04T21:53:59.092Z,7.25
2023-05-04T21:56:26.076Z,6.82
2023-05-04T21:58:53.431Z,6.97
2023-05-04T22:01:20.750Z,7.10
2023-05-04T22:03:48.086Z,7.70
2023-05-04T22:06:15.537Z,7.57
2023-05-04T22:08:42.528Z,7.97
2023-05-04T22:11:09.830Z,6.68
2023-05-04T22:13:36.962Z,7.35
2023-05-04T22:16:04.286Z,7.70
2023-05-04T22:18:31.327Z,7.25
2023-05-04T22:20:58.270Z,7.00
2023-05-04T22:23:25.375Z,7.25
2023-05-04T22:25:52.339Z,7.82
2023-05-04T22:28:19.543Z,7.43
2023-05-04T22:30:46.448Z,7.00
2023-05-04T22:33:13.412Z,7.65
2023-05-04T22:35:40.228Z,7.32
2023-05-04T22:38:08.973Z,7.47
2023-05-04T22:40:39.907Z,8.25
2023-05-04T22:43:07.524Z,7.57
2023-05-04T22:45:38.679Z,7.55
2023-05-04T22:48:05.880Z,7.53
2023-05-04T22:50:33.316Z,8.40
2023-05-04T22:53:00.613Z,7.50
2023-05-04T22:55:27.546Z,7.65
2023-05-04T22:57:54.598Z,6.97
2023-05-04T23:00:21.867Z,7.15
2023-05-04T23:02:49.337Z,7.75
2023-05-04T23:05:17.860Z,7.90
2023-05-04T23:07:44.726Z,8.57
2023-05-04T23:10:12.977Z,8.30
2023-05-04T23:12:39.914Z,8.07
2023-05-04T23:15:07.518Z,7.70
2023-05-04T23:17:34.462Z,7.93
2023-05-04T23:20:01.765Z,7.70
2023-05-04T23:22:28.963Z,8.10
2023-05-04T23:24:57.023Z,8.25
2023-05-04T23:27:24.071Z,8.07
2023-05-04T23:29:51.660Z,8.48
2023-05-04T23:32:19.959Z,7.93
2023-05-04T23:34:47.510Z,8.25
2023-05-04T23:37:14.476Z,7.43
2023-05-04T23:39:41.467Z,8.10
2023-05-04T23:42:09.663Z,8.13
2023-05-04T23:44:36.633Z,9.02
2023-05-04T23:47:03.993Z,8.05
2023-05-04T23:49:31.319Z,8.40
2023-05-04T23:51:58.181Z,8.25
2023-05-04T23:54:27.279Z,8.48
2023-05-04T23:56:54.228Z,8.15
2023-05-04T23:59:21.517Z,8.45
